Terminal Aerodrome Forecast
Issued by NWS Newport/Morehead City, NC

Home | Current Version | Previous Version | Graphics & Text | Print | Product List | Glossary On
Versions: 1 2 3 4 5 6 7 8 9 10 11 12 13 14 15 16 17 18 19 20 21 22 23 24 25 26 27 28 29 30 31 32 33 34 35 36 37 38 39 40 41 42 43
000
FTUS42 KMHX 241200 AAB
TAFEWN
TAF AMD
KEWN 241231Z 2413/2512 18010KT P6SM OVC006
     FM241400 18010G15KT 3SM RA BR OVC004
     FM241900 18015G20KT 4SM BR VCSH OVC007
     FM250600 21010G15KT P6SM OVC015
     FM250900 25010KT P6SM OVC050=

USA.gov is the U.S. government's official web portal to all federal, state and local government web resources and services.